Time;durP1;ratioP1;P1;durP2;ratioP2;P2;SDS_P1;SDS_P2;PMS_P1;PMS_P2;Temp;Humidity;BMP_temperature;BMP_pressure;BME280_temperature;BME280_humidity;BME280_pressure;Samples;Min_cycle;Max_cycle;Signal;HPM_P1;HPM_P2
2021/08/01 00:01:45;;;;;;;1999.90;999.90;;;;;;;20.52;100.00;95454.91;5047103;28;20621;-68
2021/08/01 00:04:12;;;;;;;1999.90;999.90;;;;;;;20.60;100.00;95453.88;5046809;28;20193;-68
2021/08/01 00:06:41;;;;;;;1999.90;999.90;;;;;;;20.67;100.00;95449.81;5046784;28;20193;-68
2021/08/01 00:09:08;;;;;;;1999.90;999.90;;;;;;;20.57;100.00;95451.94;5046679;28;20201;-67
2021/08/01 00:11:35;;;;;;;1999.90;999.90;;;;;;;20.55;100.00;95446.28;5046950;28;20253;-68
2021/08/01 00:14:02;;;;;;;1999.90;999.90;;;;;;;20.52;100.00;95444.34;5046979;28;20224;-68
2021/08/01 00:16:29;;;;;;;1999.90;999.90;;;;;;;20.54;100.00;95452.69;5046677;28;20250;-68
2021/08/01 00:18:57;;;;;;;1999.90;999.90;;;;;;;20.54;100.00;95450.03;5046670;28;20201;-68
2021/08/01 00:21:24;;;;;;;1999.90;999.90;;;;;;;20.55;100.00;95448.94;5046362;28;20244;-68
2021/08/01 00:23:53;;;;;;;1999.90;999.90;;;;;;;20.55;100.00;95454.19;5046504;28;20670;-69
2021/08/01 00:26:20;;;;;;;1999.90;999.90;;;;;;;20.60;100.00;95445.97;5046401;28;21029;-68
2021/08/01 00:28:47;;;;;;;1999.90;999.90;;;;;;;20.54;100.00;95449.28;5046531;28;20197;-68
2021/08/01 00:31:14;;;;;;;1999.90;999.90;;;;;;;20.46;100.00;95443.16;5046666;28;20270;-68
2021/08/01 00:33:42;;;;;;;1999.90;999.90;;;;;;;20.43;100.00;95449.13;5046568;28;20224;-68
2021/08/01 00:36:09;;;;;;;1999.90;999.90;;;;;;;20.40;100.00;95460.41;5048668;28;20606;-68
2021/08/01 00:38:36;;;;;;;1999.90;999.90;;;;;;;20.48;100.00;95462.03;5050352;28;20256;-69
2021/08/01 00:41:05;;;;;;;1999.90;999.90;;;;;;;20.45;100.00;95464.63;5049830;28;20205;-68
2021/08/01 00:43:33;;;;;;;1999.90;999.90;;;;;;;20.52;100.00;95457.53;5050031;28;20658;-68
2021/08/01 00:46:00;;;;;;;1999.90;999.90;;;;;;;20.48;100.00;95459.38;5049758;28;20307;-68
2021/08/01 00:48:27;;;;;;;1999.90;999.90;;;;;;;20.46;100.00;95466.91;5049962;28;20704;-69
2021/08/01 00:50:55;;;;;;;1999.90;999.90;;;;;;;20.42;100.00;95471.34;5049904;28;20205;-69
2021/08/01 00:53:23;;;;;;;1999.90;999.90;;;;;;;20.32;100.00;95465.94;5049785;28;20226;-70
2021/08/01 00:55:50;;;;;;;1999.90;999.90;;;;;;;20.25;100.00;95471.09;5049618;28;20738;-68
2021/08/01 00:58:18;;;;;;;1999.90;999.90;;;;;;;20.23;100.00;95474.06;5050049;28;20295;-68
2021/08/01 01:03:56;;;;;;;1999.90;999.90;;;;;;;20.20;100.00;95459.72;5051034;28;20639;-67
2021/08/01 01:06:43;;;;;;;1999.90;999.90;;;;;;;20.09;100.00;95464.06;5050096;28;20246;-68
2021/08/01 01:09:21;;;;;;;1999.90;999.90;;;;;;;20.00;100.00;95470.72;5049969;28;20265;-67
2021/08/01 01:11:49;;;;;;;1999.90;999.90;;;;;;;19.95;100.00;95463.09;5049596;28;20226;-68
2021/08/01 01:14:23;;;;;;;1999.90;999.90;;;;;;;20.03;100.00;95464.72;5049774;28;20225;-69
2021/08/01 01:16:55;;;;;;;1999.90;999.90;;;;;;;20.03;100.00;95464.72;5049767;28;20186;-68
2021/08/01 01:19:43;;;;;;;1999.90;999.90;;;;;;;20.09;100.00;95465.94;5049634;28;20193;-68
2021/08/01 01:22:18;;;;;;;1999.90;999.90;;;;;;;20.09;100.00;95465.94;5049411;28;20658;-68
2021/08/01 01:24:47;;;;;;;1999.90;999.90;;;;;;;20.07;100.00;95461.03;5049543;28;20189;-69
2021/08/01 01:27:16;;;;;;;1999.90;999.90;;;;;;;20.08;100.00;95461.78;5049415;28;20197;-68
2021/08/01 01:29:49;;;;;;;1999.90;999.90;;;;;;;20.17;100.00;95467.59;5048948;28;20245;-68
2021/08/01 01:32:23;;;;;;;1999.90;999.90;;;;;;;20.07;100.00;95466.31;5049313;28;20220;-68
2021/08/01 01:35:00;;;;;;;1999.90;999.90;;;;;;;20.08;100.00;95473.09;5049491;28;20744;-67
2021/08/01 01:37:30;;;;;;;1999.90;999.90;;;;;;;20.06;100.00;95469.31;5049358;28;20193;-68
2021/08/01 01:39:59;;;;;;;1999.90;999.90;;;;;;;19.92;100.00;95474.38;5049392;28;20657;-67
2021/08/01 01:42:28;;;;;;;1999.90;999.90;;;;;;;19.78;100.00;95470.38;5049208;28;20205;-68
2021/08/01 01:44:57;;;;;;;1999.90;999.90;;;;;;;19.69;100.00;95474.34;5048915;28;20193;-68
2021/08/01 01:47:25;;;;;;;1999.90;999.90;;;;;;;19.60;100.00;95474.59;5047991;28;20205;-68
2021/08/01 01:49:56;;;;;;;1999.90;999.90;;;;;;;19.55;100.00;95463.56;5049011;28;20197;-68
2021/08/01 01:52:24;;;;;;;1999.90;999.90;;;;;;;19.57;100.00;95474.53;5049346;28;20194;-68
2021/08/01 01:54:53;;;;;;;1999.90;999.90;;;;;;;19.61;100.00;95470.09;5048745;28;20217;-68
2021/08/01 01:57:21;;;;;;;1999.90;999.90;;;;;;;19.62;100.00;95464.47;5252838;22;20914;-71
2021/08/01 01:59:49;;;;;;;1999.90;999.90;;;;;;;19.63;100.00;95458.06;5028069;28;20635;-71
2021/08/01 02:02:16;;;;;;;1999.90;999.90;;;;;;;19.68;100.00;95457.00;5024767;28;20645;-72
2021/08/01 02:04:43;;;;;;;1999.90;999.90;;;;;;;19.66;100.00;95462.66;5025467;28;20198;-71
2021/08/01 02:07:10;;;;;;;1999.90;999.90;;;;;;;19.53;100.00;95471.81;5027284;28;20194;-71
2021/08/01 02:09:47;;;;;;;1999.90;999.90;;;;;;;19.41;100.00;95471.97;5027743;28;20288;-71
2021/08/01 02:12:18;;;;;;;1999.90;999.90;;;;;;;19.43;100.00;95469.72;5028153;28;20186;-71
2021/08/01 02:14:55;;;;;;;1999.90;999.90;;;;;;;19.48;100.00;95473.97;5028485;28;20210;-72
2021/08/01 02:17:29;;;;;;;1999.90;999.90;;;;;;;19.61;100.00;95470.84;5028253;28;20277;-72
2021/08/01 02:20:00;;;;;;;1999.90;999.90;;;;;;;19.50;100.00;95485.72;5028047;28;20190;-71
2021/08/01 02:22:28;;;;;;;1999.90;999.90;;;;;;;19.30;100.00;95481.56;5028522;28;20193;-72
2021/08/01 02:24:55;;;;;;;1999.90;999.90;;;;;;;19.09;100.00;95473.25;5028018;28;20263;-72
2021/08/01 02:27:25;;;;;;;1999.90;999.90;;;;;;;19.07;100.00;95483.38;5028225;28;20198;-72
2021/08/01 02:29:52;;;;;;;1999.90;999.90;;;;;;;19.09;100.00;95492.44;5027839;28;20209;-72
2021/08/01 02:32:21;;;;;;;1999.90;999.90;;;;;;;19.14;100.00;95488.78;5027910;28;20208;-72
2021/08/01 02:34:48;;;;;;;1999.90;999.90;;;;;;;19.23;100.00;95484.03;5027858;28;20826;-71
2021/08/01 02:37:17;;;;;;;1999.90;999.90;;;;;;;19.26;100.00;95488.63;5028401;28;20201;-71
2021/08/01 02:39:46;;;;;;;1999.90;999.90;;;;;;;19.34;100.00;95492.91;5028180;28;20205;-71
2021/08/01 02:42:14;;;;;;;1999.90;999.90;;;;;;;19.34;100.00;95498.19;5027779;28;20194;-72
2021/08/01 02:44:45;;;;;;;1999.90;999.90;;;;;;;19.33;100.00;95494.03;5027873;28;20202;-72
2021/08/01 02:47:17;;;;;;;1999.90;999.90;;;;;;;19.36;100.00;95495.97;5027867;28;20197;-71
2021/08/01 02:49:46;;;;;;;1999.90;999.90;;;;;;;19.39;100.00;95497.13;5028160;28;20194;-71
2021/08/01 02:52:16;;;;;;;1999.90;999.90;;;;;;;19.46;100.00;95495.44;5027642;28;20250;-71
2021/08/01 02:54:49;;;;;;;1999.90;999.90;;;;;;;19.47;100.00;95494.34;5027798;28;20213;-71
2021/08/01 02:57:17;;;;;;;1999.90;999.90;;;;;;;19.47;100.00;95499.59;5027779;28;20612;-71
2021/08/01 02:59:47;;;;;;;1999.90;999.90;;;;;;;19.42;100.00;95494.59;5027773;28;20213;-72
2021/08/01 03:02:14;;;;;;;1999.90;999.90;;;;;;;19.42;100.00;95505.13;5027709;28;20247;-72
2021/08/01 03:04:44;;;;;;;1999.90;999.90;;;;;;;19.45;100.00;95499.19;5027593;28;20205;-72
2021/08/01 03:07:12;;;;;;;1999.90;999.90;;;;;;;19.50;100.00;95491.00;5027403;28;20190;-72
2021/08/01 03:09:40;;;;;;;1999.90;999.90;;;;;;;19.52;100.00;95490.66;5027202;28;20209;-72
2021/08/01 03:12:11;;;;;;;1999.90;999.90;;;;;;;19.54;100.00;95501.59;5027448;28;20197;-72
2021/08/01 03:14:39;;;;;;;1999.90;999.90;;;;;;;19.47;100.00;95498.84;5027195;28;20282;-71
2021/08/01 03:17:08;;;;;;;1999.90;999.90;;;;;;;19.49;100.00;95504.50;5027802;28;20204;-71
2021/08/01 03:19:37;;;;;;;1999.90;999.90;;;;;;;19.56;100.00;95508.03;5027485;28;20231;-72
2021/08/01 03:22:05;;;;;;;1999.90;999.90;;;;;;;19.43;100.00;95505.91;5027526;28;20194;-72
2021/08/01 03:24:32;;;;;;;1999.90;999.90;;;;;;;19.38;100.00;95508.81;5027048;28;20263;-72
2021/08/01 03:26:59;;;;;;;1999.90;999.90;;;;;;;19.34;100.00;95511.38;5027057;28;20194;-72
2021/08/01 03:29:27;;;;;;;1999.90;999.90;;;;;;;19.21;100.00;95525.81;5026922;28;20194;-72
2021/08/01 03:31:54;;;;;;;1999.90;999.90;;;;;;;19.16;100.00;95528.72;5026977;28;20205;-70
2021/08/01 03:34:22;;;;;;;1999.90;999.90;;;;;;;19.02;100.00;95528.44;5026802;28;20739;-71
2021/08/01 03:36:50;;;;;;;1999.90;999.90;;;;;;;18.87;100.00;95528.16;5027019;28;20205;-70
2021/08/01 03:39:17;;;;;;;1999.90;999.90;;;;;;;18.78;100.00;95532.81;5026892;28;20208;-70
2021/08/01 03:41:44;;;;;;;1999.90;999.90;;;;;;;18.81;100.00;95534.78;5027113;28;20225;-69
2021/08/01 03:44:12;;;;;;;1999.90;999.90;;;;;;;18.82;100.00;95525.78;5026981;28;20209;-69
2021/08/01 03:46:39;;;;;;;1999.90;999.90;;;;;;;18.76;100.00;95527.16;5026962;28;20677;-70
2021/08/01 03:49:07;;;;;;;1999.90;999.90;;;;;;;18.79;100.00;95526.47;5027070;28;20202;-70
2021/08/01 03:51:35;;;;;;;1999.90;999.90;;;;;;;18.86;100.00;95528.47;5026729;28;20198;-70
2021/08/01 03:54:03;;;;;;;1999.90;999.90;;;;;;;18.85;100.00;95516.41;5026601;28;20285;-70
2021/08/01 03:56:30;;;;;;;1999.90;999.90;;;;;;;18.87;100.00;95511.59;5027111;28;20266;-71
2021/08/01 03:58:57;;;;;;;1999.90;999.90;;;;;;;18.91;100.00;95515.81;5026597;28;20234;-71
2021/08/01 04:01:24;;;;;;;1999.90;999.90;;;;;;;18.96;100.00;95520.03;5026506;28;20201;-71
2021/08/01 04:03:51;;;;;;;1999.90;999.90;;;;;;;19.00;100.00;95520.09;5026757;28;20255;-70
2021/08/01 04:06:18;;;;;;;1999.90;999.90;;;;;;;19.01;100.00;95521.63;5026514;28;20238;-70
2021/08/01 04:08:47;;;;;;;1999.90;999.90;;;;;;;18.91;100.00;95530.84;5026383;28;20677;-71
2021/08/01 04:11:14;;;;;;;1999.90;999.90;;;;;;;19.00;100.00;95515.59;5025808;28;20194;-71
2021/08/01 04:13:41;;;;;;;1999.90;999.90;;;;;;;19.13;100.00;95524.88;5026705;28;20292;-70
2021/08/01 04:16:09;;;;;;;1999.90;999.90;;;;;;;19.24;100.00;95520.59;5026565;28;20308;-71
2021/08/01 04:18:36;;;;;;;1999.90;999.90;;;;;;;19.32;100.00;95524.91;5026547;28;20284;-70
2021/08/01 04:21:08;;;;;;;1999.90;999.90;;;;;;;19.44;100.00;95524.00;5026297;28;20699;-70
2021/08/01 04:23:36;;;;;;;1999.90;999.90;;;;;;;19.71;100.00;95523.00;5026316;28;20186;-71
2021/08/01 04:26:06;;;;;;;1999.90;999.90;;;;;;;19.88;100.00;95532.31;5026041;28;20205;-71
2021/08/01 04:28:33;;;;;;;1999.90;999.90;;;;;;;20.03;100.00;95531.44;5026315;28;20657;-70
2021/08/01 04:31:01;;;;;;;1999.90;999.90;;;;;;;20.16;100.00;95529.41;5026836;28;20210;-70
2021/08/01 04:33:28;;;;;;;1999.90;999.90;;;;;;;20.36;100.00;95533.50;5025999;28;20194;-71
2021/08/01 04:35:55;;;;;;;1999.90;999.90;;;;;;;20.61;100.00;95532.00;5025985;28;20236;-71
2021/08/01 04:38:22;;;;;;;1999.90;999.90;;;;;;;20.81;100.00;95535.28;5026032;28;20198;-71
2021/08/01 04:40:50;;;;;;;1999.90;999.90;;;;;;;21.27;100.00;95535.88;5026050;28;20198;-71
2021/08/01 04:43:19;;;;;;;1999.90;999.90;;;;;;;21.70;100.00;95541.66;5025954;28;20286;-70
2021/08/01 04:45:46;;;;;;;1999.90;999.90;;;;;;;22.10;97.57;95540.91;5025918;28;20201;-71
2021/08/01 04:48:13;;;;;;;1999.90;999.90;;;;;;;22.47;94.36;95538.16;5025915;28;20583;-70
2021/08/01 04:50:40;;;;;;;1999.90;999.90;;;;;;;22.74;93.39;95544.81;5026023;28;20264;-70
2021/08/01 04:53:07;;;;;;;1999.90;999.90;;;;;;;22.91;91.25;95546.81;5025839;28;20202;-71
2021/08/01 04:55:35;;;;;;;1999.90;999.90;;;;;;;22.92;92.74;95558.91;5026096;28;20620;-71
2021/08/01 04:58:03;;;;;;;1999.90;999.90;;;;;;;23.00;94.63;95557.84;5025674;28;20225;-71
2021/08/01 05:00:31;;;;;;;1999.90;999.90;;;;;;;23.06;94.79;95558.97;5025719;28;20285;-71
2021/08/01 05:02:59;;;;;;;1999.90;999.90;;;;;;;23.05;94.84;95564.69;5025725;28;20684;-70
2021/08/01 05:05:27;;;;;;;1999.90;999.90;;;;;;;23.02;96.64;95570.69;5025772;28;20202;-70
2021/08/01 05:07:54;;;;;;;1999.90;999.90;;;;;;;22.99;97.39;95569.56;5025873;28;20198;-71
2021/08/01 05:10:21;;;;;;;1999.90;999.90;;;;;;;23.06;97.50;95571.50;5026111;28;20198;-70
2021/08/01 05:12:48;;;;;;;1999.90;999.90;;;;;;;22.84;97.17;95564.56;5026071;28;20216;-69
2021/08/01 05:15:15;;;;;;;1999.90;999.90;;;;;;;22.71;98.48;95564.09;5025641;28;20222;-72
2021/08/01 05:17:44;;;;;;;1999.90;999.90;;;;;;;22.76;99.67;95563.00;5025924;28;20613;-71
2021/08/01 05:20:12;;;;;;;1999.90;999.90;;;;;;;22.85;99.20;95561.53;5025677;28;20198;-69
2021/08/01 05:22:39;;;;;;;1999.90;999.90;;;;;;;22.68;99.92;95556.84;5026971;28;20262;-71
2021/08/01 05:25:07;;;;;;;1999.90;999.90;;;;;;;22.74;98.68;95561.47;5029012;28;20635;-71
2021/08/01 05:27:35;;;;;;;1999.90;999.90;;;;;;;22.90;97.92;95561.19;5028848;28;20202;-71
2021/08/01 05:30:02;;;;;;;1999.90;999.90;;;;;;;23.05;96.34;95559.38;5028760;28;20210;-72
2021/08/01 05:32:33;;;;;;;1999.90;999.90;;;;;;;23.09;96.58;95576.06;5029070;28;20322;-71
2021/08/01 05:35:02;;;;;;;1999.90;999.90;;;;;;;23.26;96.07;95579.94;5029027;28;20685;-71
2021/08/01 05:37:29;;;;;;;1999.90;999.90;;;;;;;23.17;96.40;95578.38;5028966;28;20671;-72
2021/08/01 05:39:58;;;;;;;1999.90;999.90;;;;;;;23.40;94.83;95580.00;5028777;28;20658;-71
2021/08/01 05:42:25;;;;;;;1999.90;999.90;;;;;;;23.58;94.51;95580.84;5028669;28;20313;-72
2021/08/01 05:44:52;;;;;;;1999.90;999.90;;;;;;;23.68;90.90;95582.00;5028462;28;20206;-71
2021/08/01 05:47:19;;;;;;;1999.90;999.90;;;;;;;23.76;92.12;95586.22;5028740;28;20201;-71
2021/08/01 05:49:46;;;;;;;1999.90;999.90;;;;;;;23.74;89.56;95588.47;5028548;28;20197;-73
2021/08/01 05:52:18;;;;;;;1999.90;999.90;;;;;;;23.89;89.42;95588.13;5028585;28;20202;-72
2021/08/01 05:54:45;;;;;;;1999.90;999.90;;;;;;;23.95;89.70;95589.28;5028812;28;20189;-72
2021/08/01 05:57:12;;;;;;;1999.90;999.90;;;;;;;24.20;89.28;95570.00;5028241;28;20997;-72
2021/08/01 05:59:39;;;;;;;1999.90;999.90;;;;;;;24.18;87.76;95572.25;5028563;28;20201;-72
2021/08/01 06:02:06;;;;;;;1999.90;999.90;;;;;;;24.30;89.23;95569.25;5028190;28;20200;-72
2021/08/01 06:04:33;;;;;;;1999.90;999.90;;;;;;;24.21;91.77;95568.88;5028279;28;20677;-71
2021/08/01 06:07:00;;;;;;;1999.90;999.90;;;;;;;24.45;91.09;95568.13;5028648;28;20202;-72
2021/08/01 06:09:29;;;;;;;1999.90;999.90;;;;;;;24.52;89.02;95568.09;5028513;28;20644;-71
2021/08/01 06:11:56;;;;;;;1999.90;999.90;;;;;;;24.69;88.06;95572.66;5028650;28;20202;-71
2021/08/01 06:14:24;;;;;;;1999.90;999.90;;;;;;;24.80;89.42;95562.75;5028074;28;20196;-72
2021/08/01 06:16:51;;;;;;;1999.90;999.90;;;;;;;24.70;89.50;95568.09;5027976;28;20236;-72
2021/08/01 06:19:18;;;;;;;1999.90;999.90;;;;;;;24.75;90.63;95575.69;5028121;28;20206;-72
2021/08/01 06:21:45;;;;;;;1999.90;999.90;;;;;;;24.82;91.16;95565.03;5028027;28;20212;-72
2021/08/01 06:24:12;;;;;;;1999.90;999.90;;;;;;;25.16;87.97;95562.69;5028041;28;20212;-72
2021/08/01 06:26:42;;;;;;;1999.90;999.90;;;;;;;25.09;87.17;95557.41;5028089;28;20605;-72
2021/08/01 06:29:10;;;;;;;1999.90;999.90;;;;;;;25.16;88.78;95552.03;5028195;28;20693;-72
2021/08/01 06:31:37;;;;;;;1999.90;999.90;;;;;;;25.55;83.40;95558.00;5028105;28;20234;-72
2021/08/01 06:34:04;;;;;;;1999.90;999.90;;;;;;;25.73;86.11;95544.59;5027609;28;20194;-72
2021/08/01 06:36:32;;;;;;;1999.90;999.90;;;;;;;25.85;84.13;95559.38;5028007;28;20226;-72
2021/08/01 06:38:59;;;;;;;1999.90;999.90;;;;;;;25.91;82.56;95557.78;5028001;28;20570;-72
2021/08/01 06:41:26;;;;;;;1999.90;999.90;;;;;;;26.10;83.12;95550.03;5028006;28;20251;-72
2021/08/01 06:43:54;;;;;;;1999.90;999.90;;;;;;;26.29;81.32;95548.81;5027905;28;20293;-72
2021/08/01 06:46:22;;;;;;;1999.90;999.90;;;;;;;26.34;80.62;95552.97;5027889;28;20208;-72
2021/08/01 06:48:49;;;;;;;1999.90;999.90;;;;;;;26.56;79.91;95555.03;5027531;28;20202;-73
2021/08/01 06:51:16;;;;;;;1999.90;999.90;;;;;;;26.59;79.32;95544.75;5027833;28;20206;-72
2021/08/01 06:53:43;;;;;;;1999.90;999.90;;;;;;;26.73;81.74;95541.94;5027917;28;20212;-73
2021/08/01 06:56:10;;;;;;;1999.90;999.90;;;;;;;26.69;80.78;95547.31;5027651;28;20252;-72
2021/08/01 06:58:37;;;;;;;1999.90;999.90;;;;;;;26.89;78.65;95550.97;5027219;28;20238;-72
2021/08/01 07:01:06;;;;;;;1999.90;999.90;;;;;;;26.82;78.42;95544.91;5027335;28;20661;-73
2021/08/01 07:03:33;;;;;;;1999.90;999.90;;;;;;;26.79;79.28;95545.72;5027337;28;20201;-73
2021/08/01 07:06:00;;;;;;;1999.90;999.90;;;;;;;26.89;77.48;95548.31;5027338;28;20202;-73
2021/08/01 07:08:27;;;;;;;1999.90;999.90;;;;;;;26.88;72.40;95548.69;5027303;28;20197;-73
2021/08/01 07:10:54;;;;;;;1999.90;999.90;;;;;;;27.06;75.94;95543.91;5027378;28;20237;-73
2021/08/01 07:13:21;;;;;;;1999.90;999.90;;;;;;;26.83;76.79;95543.75;5027482;28;20202;-72
2021/08/01 07:15:49;;;;;;;1999.90;999.90;;;;;;;26.94;76.57;95544.44;5027309;28;20222;-73
2021/08/01 07:18:18;;;;;;;1999.90;999.90;;;;;;;27.16;71.95;95548.38;5027397;28;20229;-74
2021/08/01 07:20:45;;;;;;;1999.90;999.90;;;;;;;27.42;70.30;95553.03;5027425;28;20613;-74
2021/08/01 07:23:12;;;;;;;1999.90;999.90;;;;;;;27.22;70.64;95554.78;5026866;28;20206;-74
2021/08/01 07:25:39;;;;;;;1999.90;999.90;;;;;;;26.89;70.07;95560.88;5027300;28;20209;-72
2021/08/01 07:28:06;;;;;;;1999.90;999.90;;;;;;;27.20;72.24;95553.69;5026975;28;20748;-72
2021/08/01 07:30:33;;;;;;;1999.90;999.90;;;;;;;27.39;72.57;95558.41;5026868;28;20201;-72
2021/08/01 07:33:01;;;;;;;1999.90;999.90;;;;;;;27.48;70.19;95557.91;5026778;28;20202;-72
2021/08/01 07:35:30;;;;;;;1999.90;999.90;;;;;;;27.57;69.62;95560.88;5026750;28;20312;-72
2021/08/01 07:37:57;;;;;;;1999.90;999.90;;;;;;;28.00;69.30;95566.41;5026576;28;20212;-72
2021/08/01 07:40:24;;;;;;;1999.90;999.90;;;;;;;28.20;71.04;95562.69;5026546;28;20209;-72
2021/08/01 07:42:51;;;;;;;1999.90;999.90;;;;;;;28.31;71.02;95561.75;5026985;28;20206;-72
2021/08/01 07:45:29;;;;;;;1999.90;999.90;;;;;;;28.23;74.85;95551.19;5025866;28;20241;-73
2021/08/01 07:47:56;;;;;;;1999.90;999.90;;;;;;;28.21;70.58;95558.09;5026717;28;20186;-72
2021/08/01 07:50:24;;;;;;;1999.90;999.90;;;;;;;28.09;70.12;95564.00;5026857;28;20202;-72
2021/08/01 07:52:53;;;;;;;1999.90;999.90;;;;;;;27.91;70.60;95556.22;5026740;28;20320;-72
2021/08/01 07:55:20;;;;;;;1999.90;999.90;;;;;;;28.00;71.34;95551.13;5026465;28;20198;-71
2021/08/01 07:57:49;;;;;;;1999.90;999.90;;;;;;;28.22;66.41;95557.69;5026252;28;20237;-71
2021/08/01 08:00:17;;;;;;;1999.90;999.90;;;;;;;28.31;66.14;95554.50;5026288;28;20202;-72
2021/08/01 08:02:45;;;;;;;1999.90;999.90;;;;;;;28.35;64.92;95543.75;5026483;28;20198;-72
2021/08/01 08:05:13;;;;;;;1999.90;999.90;;;;;;;28.41;67.40;95542.13;5026393;28;20206;-71
2021/08/01 08:07:40;;;;;;;1999.90;999.90;;;;;;;28.66;67.15;95537.13;5026349;28;20206;-72
2021/08/01 08:10:10;;;;;;;1999.90;999.90;;;;;;;28.72;68.49;95535.50;5026266;28;20194;-72
2021/08/01 08:12:38;;;;;;;1999.90;999.90;;;;;;;28.67;68.11;95533.28;5026590;28;20186;-72
2021/08/01 08:15:07;;;;;;;1999.90;999.90;;;;;;;28.98;66.84;95531.22;5026214;28;20579;-72
2021/08/01 08:17:34;;;;;;;1999.90;999.90;;;;;;;29.10;66.63;95534.03;5026006;28;20226;-73
2021/08/01 08:20:03;;;;;;;1999.90;999.90;;;;;;;29.25;63.78;95523.03;5026559;28;20205;-73
2021/08/01 08:22:30;;;;;;;1999.90;999.90;;;;;;;29.37;67.52;95522.44;5026280;28;20201;-72
2021/08/01 08:24:57;;;;;;;1999.90;999.90;;;;;;;29.62;67.30;95519.25;5026588;28;20212;-73
2021/08/01 08:27:26;;;;;;;1999.90;999.90;;;;;;;29.83;66.66;95518.78;5026189;28;20209;-72
2021/08/01 08:29:53;;;;;;;1999.90;999.90;;;;;;;29.99;67.33;95508.09;5025971;28;20212;-73
2021/08/01 08:32:20;;;;;;;1999.90;999.90;;;;;;;29.81;66.21;95511.16;5026026;28;20234;-77
2021/08/01 08:34:47;;;;;;;1999.90;999.90;;;;;;;29.75;67.51;95512.81;5025987;28;20202;-73
2021/08/01 08:37:17;;;;;;;1999.90;999.90;;;;;;;29.68;65.04;95515.66;5026369;28;20222;-73
2021/08/01 08:39:45;;;;;;;1999.90;999.90;;;;;;;29.99;64.84;95510.75;5025975;28;20200;-73
2021/08/01 08:42:15;;;;;;;1999.90;999.90;;;;;;;30.29;64.42;95517.72;5026290;28;20201;-72
2021/08/01 08:44:44;;;;;;;1999.90;999.90;;;;;;;30.45;62.85;95503.53;5026032;28;20266;-72
2021/08/01 08:47:17;;;;;;;1999.90;999.90;;;;;;;30.58;61.10;95496.34;5026002;28;20675;-73
2021/08/01 08:49:48;;;;;;;1999.90;999.90;;;;;;;30.52;61.02;95481.94;5025935;28;20246;-72
2021/08/01 08:52:17;;;;;;;1999.90;999.90;;;;;;;30.47;59.10;95485.88;5026287;28;20190;-73
2021/08/01 08:54:47;;;;;;;1999.90;999.90;;;;;;;30.44;61.21;95491.31;5026195;28;20202;-73
2021/08/01 08:57:21;;;;;;;1999.90;999.90;;;;;;;30.52;60.20;95480.00;5027898;28;20214;-73
2021/08/01 08:59:54;;;;;;;1999.90;999.90;;;;;;;30.73;65.21;95486.75;5029545;28;20284;-73
2021/08/01 09:02:22;;;;;;;1999.90;999.90;;;;;;;30.31;63.38;95488.56;5029358;28;20197;-76
2021/08/01 09:04:50;;;;;;;1999.90;999.90;;;;;;;30.38;62.76;95477.66;5029162;28;20206;-74
2021/08/01 09:07:17;;;;;;;1999.90;999.90;;;;;;;30.73;61.27;95481.38;5029388;28;20213;-74
2021/08/01 09:09:44;;;;;;;1999.90;999.90;;;;;;;30.80;57.80;95481.16;5029031;28;20217;-74
2021/08/01 09:12:12;;;;;;;1999.90;999.90;;;;;;;30.88;56.53;95481.75;5029116;28;20191;-74
2021/08/01 09:14:39;;;;;;;1999.90;999.90;;;;;;;30.98;56.99;95486.06;5029260;28;20340;-75
2021/08/01 09:17:08;;;;;;;1999.90;999.90;;;;;;;31.16;52.02;95481.75;5029164;28;20224;-74
2021/08/01 09:19:37;;;;;;;1999.90;999.90;;;;;;;31.24;52.82;95471.53;5029181;28;20202;-73
2021/08/01 09:22:18;;;;;;;1999.90;999.90;;;;;;;31.31;49.68;95481.31;5029150;28;20202;-74
2021/08/01 09:24:48;;;;;;;1999.90;999.90;;;;;;;31.44;50.88;95469.41;5029157;28;20200;-78
2021/08/01 09:27:31;;;;;;;1999.90;999.90;;;;;;;31.70;49.25;95469.44;5028929;28;20209;-72
2021/08/01 09:29:59;;;;;;;1999.90;999.90;;;;;;;31.76;49.36;95473.84;5026968;28;20205;-74
2021/08/01 09:32:31;;;;;;;1999.90;999.90;;;;;;;31.74;46.68;95476.22;5028732;28;20604;-73
2021/08/01 09:34:58;;;;;;;1999.90;999.90;;;;;;;31.42;49.36;95477.16;5028828;28;20650;-74
2021/08/01 09:37:33;;;;;;;1999.90;999.90;;;;;;;31.55;49.51;95464.47;5028684;28;20240;-74
2021/08/01 09:40:11;;;;;;;1999.90;999.90;;;;;;;31.55;50.93;95461.78;5029205;28;20201;-74
2021/08/01 09:42:46;;;;;;;1999.90;999.90;;;;;;;31.91;48.41;95458.78;5028874;28;20190;-73
2021/08/01 09:45:16;;;;;;;1999.90;999.90;;;;;;;32.00;45.57;95450.03;5028761;28;20217;-74
2021/08/01 09:47:46;;;;;;;1999.90;999.90;;;;;;;31.83;48.25;95451.38;5028475;28;20284;-74
2021/08/01 09:50:14;;;;;;;1999.90;999.90;;;;;;;31.90;47.98;95446.53;5028610;28;20206;-74
2021/08/01 09:52:42;;;;;;;1999.90;999.90;;;;;;;32.09;47.40;95442.06;5029091;28;20198;-74
2021/08/01 09:55:20;;;;;;;1999.90;999.90;;;;;;;32.24;48.40;95437.75;5028495;28;20205;-74
2021/08/01 09:57:52;;;;;;;1999.90;999.90;;;;;;;32.14;46.22;95443.47;5028200;28;20237;-75
2021/08/01 10:00:23;;;;;;;1999.90;999.90;;;;;;;31.93;46.91;95434.16;5028823;28;20198;-75
2021/08/01 10:02:52;;;;;;;1999.90;999.90;;;;;;;32.28;49.64;95418.81;5028783;28;20186;-75
2021/08/01 10:05:21;;;;;;;1999.90;999.90;;;;;;;32.53;46.24;95420.66;5028201;28;20247;-75
2021/08/01 10:07:49;;;;;;;1999.90;999.90;;;;;;;32.76;44.94;95412.16;5027464;28;20208;-75
2021/08/01 10:10:18;;;;;;;1999.90;999.90;;;;;;;32.67;45.46;95410.16;5028340;28;20205;-75
2021/08/01 10:12:46;;;;;;;1999.90;999.90;;;;;;;33.00;44.54;95410.50;5028613;28;20202;-74
2021/08/01 10:15:14;;;;;;;1999.90;999.90;;;;;;;32.65;45.36;95407.16;5028202;28;20190;-75
2021/08/01 10:17:41;;;;;;;1999.90;999.90;;;;;;;32.73;43.45;95402.25;5028470;28;20225;-74
2021/08/01 10:20:11;;;;;;;1999.90;999.90;;;;;;;32.84;43.08;95403.38;5028211;28;20201;-74
2021/08/01 10:22:40;;;;;;;1999.90;999.90;;;;;;;32.91;42.10;95404.31;5027923;28;20209;-74
2021/08/01 10:25:11;;;;;;;1999.90;999.90;;;;;;;32.75;44.05;95397.94;5028023;28;20202;-74
2021/08/01 10:27:44;;;;;;;1999.90;999.90;;;;;;;32.84;44.66;95397.25;5027982;28;20269;-74
2021/08/01 10:30:14;;;;;;;1999.90;999.90;;;;;;;32.97;44.45;95397.94;5027826;28;20276;-73
2021/08/01 10:32:46;;;;;;;1999.90;999.90;;;;;;;33.09;43.84;95394.38;5027745;28;20688;-76
2021/08/01 10:35:16;;;;;;;1999.90;999.90;;;;;;;33.05;46.75;95385.69;5028184;28;20209;-76
2021/08/01 10:37:49;;;;;;;1999.90;999.90;;;;;;;33.24;44.10;95371.13;5027617;28;20206;-76
2021/08/01 10:40:19;;;;;;;1999.90;999.90;;;;;;;33.19;46.24;95370.94;5028212;28;20190;-74
2021/08/01 10:42:51;;;;;;;1999.90;999.90;;;;;;;33.46;44.20;95375.69;5027756;28;20193;-75
2021/08/01 10:45:19;;;;;;;1999.90;999.90;;;;;;;33.54;44.71;95372.25;5030235;28;20626;-73
2021/08/01 10:47:51;;;;;;;1999.90;999.90;;;;;;;33.63;44.77;95368.84;5028015;28;20198;-75
2021/08/01 10:50:23;;;;;;;1999.90;999.90;;;;;;;33.58;47.07;95367.47;5027736;28;20669;-76
2021/08/01 10:52:51;;;;;;;1999.90;999.90;;;;;;;33.79;48.35;95351.66;5029142;28;20191;-78
2021/08/01 10:55:23;;;;;;;1999.90;999.90;;;;;;;34.03;41.54;95339.09;5027631;28;20197;-75
2021/08/01 10:58:10;;;;;;;1999.90;999.90;;;;;;;33.93;42.15;95342.97;5027422;28;20234;-76
2021/08/01 11:00:59;;;;;;;1999.90;999.90;;;;;;;33.95;45.20;95341.34;5027720;28;20556;-76
2021/08/01 11:03:27;;;;;;;1999.90;999.90;;;;;;;33.95;44.29;95329.81;5028270;28;20190;-76